7VA3 weather

Hopewell Heliport
Hopewell, Virginia, United States

Public forecast

Using degrees Fahrenheit for public forecast. Weather courtesy of forecast.io.

METAR (pilot weather report)

Closest report is Dinwiddie County Airport, 12.9 nm (23.9 km) WSW. Retrieved 2019/01/17 08:55 UTC (21 minutes ago):

KPTB 170855Z AUTO 00000KT 10SM OVC039 00/M02 A3034 RMK AO2 T10051016

TAF (pilot weather forecast)

Closest forecast is Richmond International Airport, 13.3 nm (24.6 km) N. Retrieved 2019/01/17 06:22 UTC (3 hours ago):

TAF KRIC 170520Z 1706/1806 00000KT P6SM SCT050 FM171400 05004KT P6SM BKN080 FM172200 13004KT P6SM OVC060 FM180200 16004KT 6SM -RA OVC060 FM180500 17005KT 6SM -RA OVC030